sensor_id;sensor_type;location;lat;lon;timestamp;P1;durP1;ratioP1;P2;durP2;ratioP2
4569;SDS011;2297;51.442;6.996;2024-01-15T00:02:00;41.10;;;18.00;;
4569;SDS011;2297;51.442;6.996;2024-01-15T00:04:26;42.50;;;19.02;;
4569;SDS011;2297;51.442;6.996;2024-01-15T00:06:53;42.20;;;17.88;;
4569;SDS011;2297;51.442;6.996;2024-01-15T00:09:20;43.67;;;17.20;;
4569;SDS011;2297;51.442;6.996;2024-01-15T00:11:46;40.25;;;17.23;;
4569;SDS011;2297;51.442;6.996;2024-01-15T00:14:13;39.35;;;16.55;;
4569;SDS011;2297;51.442;6.996;2024-01-15T00:16:46;42.72;;;16.92;;
4569;SDS011;2297;51.442;6.996;2024-01-15T00:19:14;43.40;;;17.60;;
4569;SDS011;2297;51.442;6.996;2024-01-15T00:21:41;40.78;;;16.80;;
4569;SDS011;2297;51.442;6.996;2024-01-15T00:24:07;39.67;;;16.85;;
4569;SDS011;2297;51.442;6.996;2024-01-15T00:26:34;40.05;;;17.33;;
4569;SDS011;2297;51.442;6.996;2024-01-15T00:29:01;40.35;;;16.95;;
4569;SDS011;2297;51.442;6.996;2024-01-15T00:31:28;35.60;;;16.13;;
4569;SDS011;2297;51.442;6.996;2024-01-15T00:33:56;33.55;;;15.75;;
4569;SDS011;2297;51.442;6.996;2024-01-15T00:36:23;38.55;;;16.63;;
4569;SDS011;2297;51.442;6.996;2024-01-15T00:38:50;37.15;;;15.88;;
4569;SDS011;2297;51.442;6.996;2024-01-15T00:41:16;31.80;;;14.63;;
4569;SDS011;2297;51.442;6.996;2024-01-15T00:43:43;31.58;;;15.25;;
4569;SDS011;2297;51.442;6.996;2024-01-15T00:46:10;36.20;;;16.20;;
4569;SDS011;2297;51.442;6.996;2024-01-15T00:48:37;35.58;;;15.88;;
4569;SDS011;2297;51.442;6.996;2024-01-15T00:51:05;36.17;;;16.45;;
4569;SDS011;2297;51.442;6.996;2024-01-15T00:53:31;36.70;;;16.00;;
4569;SDS011;2297;51.442;6.996;2024-01-15T00:55:58;34.05;;;16.23;;
4569;SDS011;2297;51.442;6.996;2024-01-15T00:58:25;34.95;;;16.50;;
4569;SDS011;2297;51.442;6.996;2024-01-15T01:00:52;33.45;;;14.50;;
4569;SDS011;2297;51.442;6.996;2024-01-15T01:03:18;33.33;;;14.40;;
4569;SDS011;2297;51.442;6.996;2024-01-15T01:05:45;33.72;;;15.40;;
4569;SDS011;2297;51.442;6.996;2024-01-15T01:08:13;35.20;;;16.23;;
4569;SDS011;2297;51.442;6.996;2024-01-15T01:10:40;30.20;;;15.18;;
4569;SDS011;2297;51.442;6.996;2024-01-15T01:13:07;31.85;;;15.18;;
4569;SDS011;2297;51.442;6.996;2024-01-15T01:15:34;33.67;;;14.60;;
4569;SDS011;2297;51.442;6.996;2024-01-15T01:18:01;33.10;;;15.43;;
4569;SDS011;2297;51.442;6.996;2024-01-15T01:20:28;30.48;;;15.48;;
4569;SDS011;2297;51.442;6.996;2024-01-15T01:22:55;29.80;;;14.40;;
4569;SDS011;2297;51.442;6.996;2024-01-15T01:25:23;31.95;;;14.80;;
4569;SDS011;2297;51.442;6.996;2024-01-15T01:27:49;33.20;;;15.02;;
4569;SDS011;2297;51.442;6.996;2024-01-15T01:30:16;30.58;;;14.30;;
4569;SDS011;2297;51.442;6.996;2024-01-15T01:32:42;33.65;;;14.70;;
4569;SDS011;2297;51.442;6.996;2024-01-15T01:35:09;30.73;;;14.32;;
4569;SDS011;2297;51.442;6.996;2024-01-15T01:37:36;39.47;;;15.75;;
4569;SDS011;2297;51.442;6.996;2024-01-15T01:40:03;32.75;;;15.10;;
4569;SDS011;2297;51.442;6.996;2024-01-15T01:42:31;31.60;;;15.05;;
4569;SDS011;2297;51.442;6.996;2024-01-15T01:44:58;27.98;;;14.40;;
4569;SDS011;2297;51.442;6.996;2024-01-15T01:47:25;34.58;;;15.02;;
4569;SDS011;2297;51.442;6.996;2024-01-15T01:49:52;33.92;;;15.13;;
4569;SDS011;2297;51.442;6.996;2024-01-15T01:52:19;37.80;;;16.60;;
4569;SDS011;2297;51.442;6.996;2024-01-15T01:54:46;30.50;;;14.57;;
4569;SDS011;2297;51.442;6.996;2024-01-15T01:57:13;28.77;;;14.57;;
4569;SDS011;2297;51.442;6.996;2024-01-15T01:59:43;28.67;;;15.20;;
4569;SDS011;2297;51.442;6.996;2024-01-15T02:02:10;33.50;;;14.55;;
4569;SDS011;2297;51.442;6.996;2024-01-15T02:04:37;31.92;;;14.70;;
4569;SDS011;2297;51.442;6.996;2024-01-15T02:07:05;30.77;;;13.95;;
4569;SDS011;2297;51.442;6.996;2024-01-15T02:09:31;28.65;;;13.85;;
4569;SDS011;2297;51.442;6.996;2024-01-15T02:11:58;29.63;;;13.73;;
4569;SDS011;2297;51.442;6.996;2024-01-15T02:14:25;33.25;;;14.25;;
4569;SDS011;2297;51.442;6.996;2024-01-15T02:16:53;30.50;;;13.30;;
4569;SDS011;2297;51.442;6.996;2024-01-15T02:19:20;27.67;;;12.63;;
4569;SDS011;2297;51.442;6.996;2024-01-15T02:21:46;28.50;;;12.98;;
4569;SDS011;2297;51.442;6.996;2024-01-15T02:24:14;25.73;;;12.05;;
4569;SDS011;2297;51.442;6.996;2024-01-15T02:26:41;29.98;;;13.90;;
4569;SDS011;2297;51.442;6.996;2024-01-15T02:29:08;27.38;;;11.98;;
4569;SDS011;2297;51.442;6.996;2024-01-15T02:31:35;27.23;;;12.95;;
4569;SDS011;2297;51.442;6.996;2024-01-15T02:34:02;27.67;;;11.95;;
4569;SDS011;2297;51.442;6.996;2024-01-15T02:36:29;26.30;;;12.50;;
4569;SDS011;2297;51.442;6.996;2024-01-15T02:38:55;33.53;;;12.57;;
4569;SDS011;2297;51.442;6.996;2024-01-15T02:41:23;25.33;;;12.43;;
4569;SDS011;2297;51.442;6.996;2024-01-15T02:43:50;26.65;;;12.13;;
4569;SDS011;2297;51.442;6.996;2024-01-15T02:46:16;27.63;;;12.68;;
4569;SDS011;2297;51.442;6.996;2024-01-15T02:48:43;29.73;;;11.70;;
4569;SDS011;2297;51.442;6.996;2024-01-15T02:51:10;27.98;;;11.48;;
4569;SDS011;2297;51.442;6.996;2024-01-15T02:53:36;25.10;;;11.35;;
4569;SDS011;2297;51.442;6.996;2024-01-15T02:56:03;22.60;;;10.70;;
4569;SDS011;2297;51.442;6.996;2024-01-15T02:58:31;29.92;;;12.23;;
4569;SDS011;2297;51.442;6.996;2024-01-15T03:00:58;27.45;;;12.35;;
4569;SDS011;2297;51.442;6.996;2024-01-15T03:03:25;27.88;;;12.23;;
4569;SDS011;2297;51.442;6.996;2024-01-15T03:05:51;22.42;;;10.63;;
4569;SDS011;2297;51.442;6.996;2024-01-15T03:08:18;23.48;;;10.70;;
4569;SDS011;2297;51.442;6.996;2024-01-15T03:10:44;25.75;;;10.73;;
4569;SDS011;2297;51.442;6.996;2024-01-15T03:13:11;20.83;;;10.75;;
4569;SDS011;2297;51.442;6.996;2024-01-15T03:15:39;25.40;;;9.15;;
4569;SDS011;2297;51.442;6.996;2024-01-15T03:18:06;23.50;;;10.57;;
4569;SDS011;2297;51.442;6.996;2024-01-15T03:20:32;20.92;;;10.85;;
4569;SDS011;2297;51.442;6.996;2024-01-15T03:22:59;23.25;;;11.07;;
4569;SDS011;2297;51.442;6.996;2024-01-15T03:25:25;21.67;;;10.52;;
4569;SDS011;2297;51.442;6.996;2024-01-15T03:27:52;18.45;;;9.75;;
4569;SDS011;2297;51.442;6.996;2024-01-15T03:30:19;26.08;;;10.45;;
4569;SDS011;2297;51.442;6.996;2024-01-15T03:32:47;18.98;;;9.50;;
4569;SDS011;2297;51.442;6.996;2024-01-15T03:35:15;16.60;;;9.15;;
4569;SDS011;2297;51.442;6.996;2024-01-15T03:37:41;18.92;;;9.38;;
4569;SDS011;2297;51.442;6.996;2024-01-15T03:40:08;32.33;;;9.82;;
4569;SDS011;2297;51.442;6.996;2024-01-15T03:42:36;25.85;;;10.52;;
4569;SDS011;2297;51.442;6.996;2024-01-15T03:45:03;22.70;;;10.35;;
4569;SDS011;2297;51.442;6.996;2024-01-15T03:47:30;21.58;;;9.85;;
4569;SDS011;2297;51.442;6.996;2024-01-15T03:49:58;23.77;;;10.63;;
4569;SDS011;2297;51.442;6.996;2024-01-15T03:52:25;23.27;;;10.90;;
4569;SDS011;2297;51.442;6.996;2024-01-15T03:54:51;23.85;;;10.32;;
4569;SDS011;2297;51.442;6.996;2024-01-15T03:57:18;21.98;;;10.43;;
4569;SDS011;2297;51.442;6.996;2024-01-15T03:59:44;20.83;;;10.52;;
4569;SDS011;2297;51.442;6.996;2024-01-15T04:02:12;25.10;;;10.77;;
4569;SDS011;2297;51.442;6.996;2024-01-15T04:04:40;22.30;;;10.32;;
4569;SDS011;2297;51.442;6.996;2024-01-15T04:07:08;23.17;;;11.43;;
4569;SDS011;2297;51.442;6.996;2024-01-15T04:09:35;22.80;;;11.65;;
4569;SDS011;2297;51.442;6.996;2024-01-15T04:12:01;22.45;;;10.65;;
4569;SDS011;2297;51.442;6.996;2024-01-15T04:14:28;25.35;;;11.95;;
4569;SDS011;2297;51.442;6.996;2024-01-15T04:16:55;22.63;;;11.02;;
4569;SDS011;2297;51.442;6.996;2024-01-15T04:19:21;29.35;;;12.10;;
4569;SDS011;2297;51.442;6.996;2024-01-15T04:21:48;24.67;;;11.73;;
4569;SDS011;2297;51.442;6.996;2024-01-15T04:24:16;24.92;;;12.30;;
4569;SDS011;2297;51.442;6.996;2024-01-15T04:26:43;26.33;;;12.27;;
4569;SDS011;2297;51.442;6.996;2024-01-15T04:29:10;23.85;;;12.52;;
4569;SDS011;2297;51.442;6.996;2024-01-15T04:31:37;23.90;;;11.63;;
4569;SDS011;2297;51.442;6.996;2024-01-15T04:34:03;24.33;;;10.88;;
4569;SDS011;2297;51.442;6.996;2024-01-15T04:36:30;28.65;;;12.52;;
4569;SDS011;2297;51.442;6.996;2024-01-15T04:38:56;21.08;;;11.07;;
4569;SDS011;2297;51.442;6.996;2024-01-15T04:41:24;24.45;;;10.65;;
4569;SDS011;2297;51.442;6.996;2024-01-15T04:43:51;24.38;;;12.23;;
4569;SDS011;2297;51.442;6.996;2024-01-15T04:46:18;25.55;;;11.82;;
4569;SDS011;2297;51.442;6.996;2024-01-15T04:48:44;24.73;;;12.27;;
4569;SDS011;2297;51.442;6.996;2024-01-15T04:51:11;24.90;;;11.90;;
4569;SDS011;2297;51.442;6.996;2024-01-15T04:53:37;23.05;;;12.65;;
4569;SDS011;2297;51.442;6.996;2024-01-15T04:56:04;21.63;;;11.20;;
4569;SDS011;2297;51.442;6.996;2024-01-15T04:58:32;26.05;;;12.00;;
4569;SDS011;2297;51.442;6.996;2024-01-15T05:00:59;24.90;;;12.88;;
4569;SDS011;2297;51.442;6.996;2024-01-15T05:03:25;25.73;;;12.00;;
4569;SDS011;2297;51.442;6.996;2024-01-15T05:05:52;21.48;;;10.55;;
4569;SDS011;2297;51.442;6.996;2024-01-15T05:08:18;25.10;;;11.02;;
4569;SDS011;2297;51.442;6.996;2024-01-15T05:10:45;26.13;;;11.52;;
4569;SDS011;2297;51.442;6.996;2024-01-15T05:13:12;23.30;;;11.15;;
4569;SDS011;2297;51.442;6.996;2024-01-15T05:15:40;18.88;;;10.07;;
4569;SDS011;2297;51.442;6.996;2024-01-15T05:18:06;20.35;;;9.85;;
4569;SDS011;2297;51.442;6.996;2024-01-15T05:20:33;24.88;;;11.45;;
4569;SDS011;2297;51.442;6.996;2024-01-15T05:23:00;18.60;;;10.57;;
4569;SDS011;2297;51.442;6.996;2024-01-15T05:25:26;31.52;;;10.88;;
4569;SDS011;2297;51.442;6.996;2024-01-15T05:27:56;27.25;;;11.50;;
4569;SDS011;2297;51.442;6.996;2024-01-15T05:30:23;24.33;;;11.45;;
4569;SDS011;2297;51.442;6.996;2024-01-15T05:32:51;23.90;;;10.50;;
4569;SDS011;2297;51.442;6.996;2024-01-15T05:35:17;23.08;;;11.98;;
4569;SDS011;2297;51.442;6.996;2024-01-15T05:37:44;23.27;;;10.80;;
4569;SDS011;2297;51.442;6.996;2024-01-15T05:40:11;24.33;;;10.80;;
4569;SDS011;2297;51.442;6.996;2024-01-15T05:42:39;21.50;;;11.02;;
4569;SDS011;2297;51.442;6.996;2024-01-15T05:45:06;22.80;;;11.23;;
4569;SDS011;2297;51.442;6.996;2024-01-15T05:47:33;20.90;;;11.43;;
4569;SDS011;2297;51.442;6.996;2024-01-15T05:50:01;22.40;;;11.18;;
4569;SDS011;2297;51.442;6.996;2024-01-15T05:52:28;20.02;;;11.20;;
4569;SDS011;2297;51.442;6.996;2024-01-15T05:54:55;22.98;;;11.20;;
4569;SDS011;2297;51.442;6.996;2024-01-15T05:57:21;26.92;;;11.25;;
4569;SDS011;2297;51.442;6.996;2024-01-15T05:59:48;22.42;;;11.80;;
4569;SDS011;2297;51.442;6.996;2024-01-15T06:02:15;24.20;;;11.70;;
4569;SDS011;2297;51.442;6.996;2024-01-15T06:04:42;23.20;;;10.90;;
4569;SDS011;2297;51.442;6.996;2024-01-15T06:07:10;25.90;;;11.45;;
4569;SDS011;2297;51.442;6.996;2024-01-15T06:09:36;25.00;;;11.38;;
4569;SDS011;2297;51.442;6.996;2024-01-15T06:12:03;24.25;;;12.13;;
4569;SDS011;2297;51.442;6.996;2024-01-15T06:14:30;26.25;;;11.75;;
4569;SDS011;2297;51.442;6.996;2024-01-15T06:16:57;24.02;;;11.60;;
4569;SDS011;2297;51.442;6.996;2024-01-15T06:19:23;22.02;;;10.43;;
4569;SDS011;2297;51.442;6.996;2024-01-15T06:21:50;19.95;;;10.95;;
4569;SDS011;2297;51.442;6.996;2024-01-15T06:24:18;19.13;;;9.65;;
4569;SDS011;2297;51.442;6.996;2024-01-15T06:26:46;17.73;;;9.25;;
4569;SDS011;2297;51.442;6.996;2024-01-15T06:29:12;20.20;;;9.05;;
4569;SDS011;2297;51.442;6.996;2024-01-15T06:31:39;17.15;;;9.75;;
4569;SDS011;2297;51.442;6.996;2024-01-15T06:34:05;16.25;;;8.88;;
4569;SDS011;2297;51.442;6.996;2024-01-15T06:36:32;14.82;;;8.18;;
4569;SDS011;2297;51.442;6.996;2024-01-15T06:38:59;14.10;;;7.72;;
4569;SDS011;2297;51.442;6.996;2024-01-15T06:41:27;17.38;;;7.05;;
4569;SDS011;2297;51.442;6.996;2024-01-15T06:43:53;14.48;;;7.63;;
4569;SDS011;2297;51.442;6.996;2024-01-15T06:46:20;13.43;;;7.15;;
4569;SDS011;2297;51.442;6.996;2024-01-15T06:48:47;12.00;;;6.95;;
4569;SDS011;2297;51.442;6.996;2024-01-15T06:51:15;17.00;;;7.43;;
4569;SDS011;2297;51.442;6.996;2024-01-15T06:53:42;15.88;;;6.80;;
4569;SDS011;2297;51.442;6.996;2024-01-15T06:56:09;9.35;;;5.72;;
4569;SDS011;2297;51.442;6.996;2024-01-15T06:58:37;15.80;;;6.30;;
4569;SDS011;2297;51.442;6.996;2024-01-15T07:01:03;10.15;;;4.85;;
4569;SDS011;2297;51.442;6.996;2024-01-15T07:03:31;11.27;;;5.53;;
4569;SDS011;2297;51.442;6.996;2024-01-15T07:05:58;11.02;;;5.50;;
4569;SDS011;2297;51.442;6.996;2024-01-15T07:08:24;8.45;;;4.13;;
4569;SDS011;2297;51.442;6.996;2024-01-15T07:10:51;8.35;;;4.15;;
4569;SDS011;2297;51.442;6.996;2024-01-15T07:13:18;9.30;;;4.13;;
4569;SDS011;2297;51.442;6.996;2024-01-15T07:15:46;10.15;;;4.28;;
4569;SDS011;2297;51.442;6.996;2024-01-15T07:18:12;7.97;;;4.03;;
4569;SDS011;2297;51.442;6.996;2024-01-15T07:20:39;6.25;;;3.65;;
4569;SDS011;2297;51.442;6.996;2024-01-15T07:23:06;5.68;;;3.00;;
4569;SDS011;2297;51.442;6.996;2024-01-15T07:25:33;7.38;;;3.25;;
4569;SDS011;2297;51.442;6.996;2024-01-15T07:27:59;5.50;;;2.92;;
4569;SDS011;2297;51.442;6.996;2024-01-15T07:30:26;5.43;;;3.20;;
4569;SDS011;2297;51.442;6.996;2024-01-15T07:32:54;5.95;;;3.53;;
4569;SDS011;2297;51.442;6.996;2024-01-15T07:35:20;6.07;;;3.20;;
4569;SDS011;2297;51.442;6.996;2024-01-15T07:37:47;6.20;;;3.25;;
4569;SDS011;2297;51.442;6.996;2024-01-15T07:40:14;6.47;;;3.55;;
4569;SDS011;2297;51.442;6.996;2024-01-15T07:42:41;7.13;;;3.80;;
4569;SDS011;2297;51.442;6.996;2024-01-15T07:45:08;12.27;;;4.35;;
4569;SDS011;2297;51.442;6.996;2024-01-15T07:47:35;7.68;;;4.50;;
4569;SDS011;2297;51.442;6.996;2024-01-15T07:50:03;11.00;;;6.00;;
4569;SDS011;2297;51.442;6.996;2024-01-15T07:52:30;8.90;;;5.63;;
4569;SDS011;2297;51.442;6.996;2024-01-15T07:54:57;13.02;;;7.25;;
4569;SDS011;2297;51.442;6.996;2024-01-15T07:57:25;13.25;;;7.20;;
4569;SDS011;2297;51.442;6.996;2024-01-15T07:59:52;14.82;;;7.97;;
4569;SDS011;2297;51.442;6.996;2024-01-15T08:02:19;16.15;;;8.18;;
4569;SDS011;2297;51.442;6.996;2024-01-15T08:04:45;14.48;;;8.27;;
4569;SDS011;2297;51.442;6.996;2024-01-15T08:07:13;21.30;;;10.25;;
4569;SDS011;2297;51.442;6.996;2024-01-15T08:09:40;20.73;;;10.40;;
4569;SDS011;2297;51.442;6.996;2024-01-15T08:15:14;19.13;;;9.82;;
4569;SDS011;2297;51.442;6.996;2024-01-15T08:17:40;17.83;;;9.95;;
4569;SDS011;2297;51.442;6.996;2024-01-15T08:20:07;17.60;;;9.60;;
4569;SDS011;2297;51.442;6.996;2024-01-15T08:22:38;17.35;;;9.63;;
4569;SDS011;2297;51.442;6.996;2024-01-15T08:25:05;16.25;;;9.20;;
4569;SDS011;2297;51.442;6.996;2024-01-15T08:27:31;17.38;;;9.63;;
4569;SDS011;2297;51.442;6.996;2024-01-15T08:29:58;18.88;;;9.30;;
4569;SDS011;2297;51.442;6.996;2024-01-15T08:32:25;19.30;;;9.40;;
4569;SDS011;2297;51.442;6.996;2024-01-15T08:34:51;18.02;;;8.98;;
4569;SDS011;2297;51.442;6.996;2024-01-15T08:37:18;15.30;;;8.95;;
4569;SDS011;2297;51.442;6.996;2024-01-15T08:39:46;15.43;;;8.38;;
4569;SDS011;2297;51.442;6.996;2024-01-15T08:42:13;10.57;;;7.22;;
4569;SDS011;2297;51.442;6.996;2024-01-15T08:44:39;12.52;;;7.78;;
4569;SDS011;2297;51.442;6.996;2024-01-15T08:47:08;10.75;;;6.78;;
4569;SDS011;2297;51.442;6.996;2024-01-15T08:49:34;11.63;;;7.30;;
4569;SDS011;2297;51.442;6.996;2024-01-15T08:52:01;11.88;;;7.00;;
4569;SDS011;2297;51.442;6.996;2024-01-15T08:54:28;16.00;;;7.93;;
4569;SDS011;2297;51.442;6.996;2024-01-15T08:56:56;14.50;;;8.18;;
4569;SDS011;2297;51.442;6.996;2024-01-15T08:59:23;15.32;;;7.97;;
4569;SDS011;2297;51.442;6.996;2024-01-15T09:01:50;14.10;;;7.88;;
4569;SDS011;2297;51.442;6.996;2024-01-15T09:04:17;14.23;;;7.35;;
4569;SDS011;2297;51.442;6.996;2024-01-15T09:06:44;12.88;;;7.47;;
4569;SDS011;2297;51.442;6.996;2024-01-15T09:09:11;13.13;;;7.47;;
4569;SDS011;2297;51.442;6.996;2024-01-15T09:11:38;11.63;;;7.00;;
4569;SDS011;2297;51.442;6.996;2024-01-15T09:14:06;13.98;;;7.38;;
4569;SDS011;2297;51.442;6.996;2024-01-15T09:16:34;11.00;;;6.80;;
4569;SDS011;2297;51.442;6.996;2024-01-15T09:19:01;12.68;;;7.50;;
4569;SDS011;2297;51.442;6.996;2024-01-15T09:21:28;13.88;;;7.35;;
4569;SDS011;2297;51.442;6.996;2024-01-15T09:23:55;15.63;;;8.60;;
4569;SDS011;2297;51.442;6.996;2024-01-15T09:26:21;11.45;;;6.65;;
4569;SDS011;2297;51.442;6.996;2024-01-15T09:28:49;11.98;;;7.32;;
4569;SDS011;2297;51.442;6.996;2024-01-15T09:31:17;11.63;;;6.88;;
4569;SDS011;2297;51.442;6.996;2024-01-15T09:33:44;11.50;;;6.57;;
4569;SDS011;2297;51.442;6.996;2024-01-15T09:36:11;12.98;;;7.13;;
4569;SDS011;2297;51.442;6.996;2024-01-15T09:38:39;15.23;;;7.25;;
4569;SDS011;2297;51.442;6.996;2024-01-15T09:41:06;12.85;;;6.75;;
4569;SDS011;2297;51.442;6.996;2024-01-15T09:43:33;10.30;;;6.35;;
4569;SDS011;2297;51.442;6.996;2024-01-15T09:46:00;9.52;;;6.07;;
4569;SDS011;2297;51.442;6.996;2024-01-15T09:48:29;7.68;;;5.15;;
4569;SDS011;2297;51.442;6.996;2024-01-15T09:50:55;6.80;;;4.43;;
4569;SDS011;2297;51.442;6.996;2024-01-15T09:53:24;9.68;;;5.55;;
4569;SDS011;2297;51.442;6.996;2024-01-15T09:55:51;9.23;;;5.40;;
4569;SDS011;2297;51.442;6.996;2024-01-15T09:58:19;10.52;;;6.22;;
4569;SDS011;2297;51.442;6.996;2024-01-15T10:00:46;8.25;;;5.40;;
4569;SDS011;2297;51.442;6.996;2024-01-15T10:03:15;9.38;;;5.05;;
4569;SDS011;2297;51.442;6.996;2024-01-15T10:05:43;8.73;;;4.97;;
4569;SDS011;2297;51.442;6.996;2024-01-15T10:08:10;10.27;;;5.88;;
4569;SDS011;2297;51.442;6.996;2024-01-15T10:10:37;8.00;;;4.88;;
4569;SDS011;2297;51.442;6.996;2024-01-15T10:13:04;6.65;;;4.50;;
4569;SDS011;2297;51.442;6.996;2024-01-15T10:15:33;6.57;;;4.30;;
4569;SDS011;2297;51.442;6.996;2024-01-15T10:18:01;8.05;;;4.82;;
4569;SDS011;2297;51.442;6.996;2024-01-15T10:20:28;9.20;;;5.03;;
4569;SDS011;2297;51.442;6.996;2024-01-15T10:22:56;6.13;;;3.83;;
4569;SDS011;2297;51.442;6.996;2024-01-15T10:25:23;7.85;;;4.10;;
4569;SDS011;2297;51.442;6.996;2024-01-15T10:27:58;6.65;;;4.32;;
4569;SDS011;2297;51.442;6.996;2024-01-15T10:30:26;6.45;;;4.13;;
4569;SDS011;2297;51.442;6.996;2024-01-15T10:32:57;5.97;;;3.90;;
4569;SDS011;2297;51.442;6.996;2024-01-15T10:35:26;9.57;;;4.15;;
4569;SDS011;2297;51.442;6.996;2024-01-15T10:37:53;5.18;;;3.30;;
4569;SDS011;2297;51.442;6.996;2024-01-15T10:40:22;6.30;;;3.70;;
4569;SDS011;2297;51.442;6.996;2024-01-15T10:42:49;6.38;;;3.55;;
4569;SDS011;2297;51.442;6.996;2024-01-15T10:45:15;7.13;;;3.75;;
4569;SDS011;2297;51.442;6.996;2024-01-15T10:47:42;6.03;;;3.65;;
4569;SDS011;2297;51.442;6.996;2024-01-15T10:50:09;4.45;;;3.10;;
4569;SDS011;2297;51.442;6.996;2024-01-15T10:52:36;5.50;;;3.88;;
4569;SDS011;2297;51.442;6.996;2024-01-15T10:55:05;4.78;;;3.50;;
4569;SDS011;2297;51.442;6.996;2024-01-15T10:57:35;8.32;;;4.13;;
4569;SDS011;2297;51.442;6.996;2024-01-15T11:00:03;6.55;;;4.20;;
4569;SDS011;2297;51.442;6.996;2024-01-15T11:02:31;6.60;;;3.40;;
4569;SDS011;2297;51.442;6.996;2024-01-15T11:04:59;8.55;;;4.20;;
4569;SDS011;2297;51.442;6.996;2024-01-15T11:07:26;6.60;;;3.80;;
4569;SDS011;2297;51.442;6.996;2024-01-15T11:09:53;8.70;;;4.50;;
4569;SDS011;2297;51.442;6.996;2024-01-15T11:12:20;9.85;;;3.92;;
4569;SDS011;2297;51.442;6.996;2024-01-15T11:14:48;8.35;;;3.78;;
4569;SDS011;2297;51.442;6.996;2024-01-15T11:17:16;6.95;;;4.38;;
4569;SDS011;2297;51.442;6.996;2024-01-15T11:19:44;5.85;;;3.63;;
4569;SDS011;2297;51.442;6.996;2024-01-15T11:25:15;6.85;;;3.80;;
4569;SDS011;2297;51.442;6.996;2024-01-15T11:27:45;5.55;;;3.35;;
4569;SDS011;2297;51.442;6.996;2024-01-15T11:30:16;5.85;;;3.95;;
4569;SDS011;2297;51.442;6.996;2024-01-15T11:32:45;6.15;;;3.25;;
4569;SDS011;2297;51.442;6.996;2024-01-15T11:35:12;4.88;;;3.47;;
4569;SDS011;2297;51.442;6.996;2024-01-15T11:37:58;4.80;;;3.20;;
4569;SDS011;2297;51.442;6.996;2024-01-15T11:40:38;6.68;;;4.10;;
4569;SDS011;2297;51.442;6.996;2024-01-15T11:43:07;7.13;;;4.15;;
4569;SDS011;2297;51.442;6.996;2024-01-15T11:45:36;7.05;;;3.78;;
4569;SDS011;2297;51.442;6.996;2024-01-15T11:48:11;6.35;;;4.18;;
4569;SDS011;2297;51.442;6.996;2024-01-15T11:50:42;6.30;;;3.63;;
4569;SDS011;2297;51.442;6.996;2024-01-15T11:53:13;12.15;;;3.95;;
4569;SDS011;2297;51.442;6.996;2024-01-15T11:55:44;7.22;;;3.85;;
4569;SDS011;2297;51.442;6.996;2024-01-15T11:58:13;6.55;;;4.20;;
4569;SDS011;2297;51.442;6.996;2024-01-15T12:00:43;7.18;;;3.90;;
4569;SDS011;2297;51.442;6.996;2024-01-15T12:03:11;6.47;;;3.50;;
4569;SDS011;2297;51.442;6.996;2024-01-15T12:05:38;4.75;;;3.70;;
4569;SDS011;2297;51.442;6.996;2024-01-15T12:08:07;6.55;;;3.50;;
4569;SDS011;2297;51.442;6.996;2024-01-15T12:10:35;8.00;;;3.58;;
4569;SDS011;2297;51.442;6.996;2024-01-15T12:13:04;6.55;;;3.38;;
4569;SDS011;2297;51.442;6.996;2024-01-15T12:15:32;9.52;;;3.42;;
4569;SDS011;2297;51.442;6.996;2024-01-15T12:18:00;5.88;;;3.70;;
4569;SDS011;2297;51.442;6.996;2024-01-15T12:20:28;7.47;;;3.58;;
4569;SDS011;2297;51.442;6.996;2024-01-15T12:22:55;5.63;;;3.40;;
4569;SDS011;2297;51.442;6.996;2024-01-15T12:25:22;7.82;;;3.13;;
4569;SDS011;2297;51.442;6.996;2024-01-15T12:27:49;5.75;;;2.97;;
4569;SDS011;2297;51.442;6.996;2024-01-15T12:30:17;5.40;;;3.20;;
4569;SDS011;2297;51.442;6.996;2024-01-15T12:32:44;12.75;;;3.25;;
4569;SDS011;2297;51.442;6.996;2024-01-15T12:35:13;5.10;;;3.13;;
4569;SDS011;2297;51.442;6.996;2024-01-15T12:37:41;7.68;;;3.28;;
4569;SDS011;2297;51.442;6.996;2024-01-15T12:40:11;7.75;;;3.58;;
4569;SDS011;2297;51.442;6.996;2024-01-15T12:42:39;6.25;;;3.17;;
4569;SDS011;2297;51.442;6.996;2024-01-15T12:45:06;5.57;;;3.30;;
4569;SDS011;2297;51.442;6.996;2024-01-15T12:47:36;5.57;;;3.10;;
4569;SDS011;2297;51.442;6.996;2024-01-15T12:50:05;8.07;;;3.33;;
4569;SDS011;2297;51.442;6.996;2024-01-15T12:52:34;7.50;;;3.47;;
4569;SDS011;2297;51.442;6.996;2024-01-15T12:55:02;6.18;;;3.00;;
4569;SDS011;2297;51.442;6.996;2024-01-15T12:57:30;7.55;;;3.17;;
4569;SDS011;2297;51.442;6.996;2024-01-15T12:59:57;7.88;;;3.17;;
4569;SDS011;2297;51.442;6.996;2024-01-15T13:02:24;8.50;;;3.25;;
4569;SDS011;2297;51.442;6.996;2024-01-15T13:04:50;8.07;;;3.47;;
4569;SDS011;2297;51.442;6.996;2024-01-15T13:07:19;4.07;;;2.90;;
4569;SDS011;2297;51.442;6.996;2024-01-15T13:09:47;5.88;;;2.78;;
4569;SDS011;2297;51.442;6.996;2024-01-15T13:15:11;8.30;;;4.07;;
4569;SDS011;2297;51.442;6.996;2024-01-15T13:17:38;6.75;;;3.80;;
4569;SDS011;2297;51.442;6.996;2024-01-15T13:20:06;9.88;;;3.83;;
4569;SDS011;2297;51.442;6.996;2024-01-15T13:22:33;6.40;;;3.72;;
4569;SDS011;2297;51.442;6.996;2024-01-15T13:25:01;8.48;;;3.47;;
4569;SDS011;2297;51.442;6.996;2024-01-15T13:27:29;7.30;;;3.25;;
4569;SDS011;2297;51.442;6.996;2024-01-15T13:29:55;6.82;;;3.83;;
4569;SDS011;2297;51.442;6.996;2024-01-15T13:32:23;7.97;;;3.47;;
4569;SDS011;2297;51.442;6.996;2024-01-15T13:34:52;12.43;;;3.67;;
4569;SDS011;2297;51.442;6.996;2024-01-15T13:37:18;6.32;;;3.10;;
4569;SDS011;2297;51.442;6.996;2024-01-15T13:39:45;5.95;;;3.83;;
4569;SDS011;2297;51.442;6.996;2024-01-15T13:42:14;5.97;;;3.65;;
4569;SDS011;2297;51.442;6.996;2024-01-15T13:44:44;7.75;;;3.38;;
4569;SDS011;2297;51.442;6.996;2024-01-15T13:47:10;6.97;;;3.50;;
4569;SDS011;2297;51.442;6.996;2024-01-15T13:49:38;6.45;;;4.25;;
4569;SDS011;2297;51.442;6.996;2024-01-15T13:52:04;7.70;;;4.57;;
4569;SDS011;2297;51.442;6.996;2024-01-15T13:54:31;6.78;;;4.35;;
4569;SDS011;2297;51.442;6.996;2024-01-15T13:56:57;6.80;;;4.32;;
4569;SDS011;2297;51.442;6.996;2024-01-15T13:59:26;11.68;;;4.80;;
4569;SDS011;2297;51.442;6.996;2024-01-15T14:01:52;6.22;;;4.30;;
4569;SDS011;2297;51.442;6.996;2024-01-15T14:04:19;8.52;;;4.10;;
4569;SDS011;2297;51.442;6.996;2024-01-15T14:06:45;11.05;;;5.03;;
4569;SDS011;2297;51.442;6.996;2024-01-15T14:09:12;10.05;;;4.05;;
4569;SDS011;2297;51.442;6.996;2024-01-15T14:11:39;6.30;;;4.00;;
4569;SDS011;2297;51.442;6.996;2024-01-15T14:14:06;9.68;;;4.53;;
4569;SDS011;2297;51.442;6.996;2024-01-15T14:16:35;5.78;;;4.07;;
4569;SDS011;2297;51.442;6.996;2024-01-15T14:19:02;6.95;;;4.10;;
4569;SDS011;2297;51.442;6.996;2024-01-15T14:21:28;5.22;;;3.67;;
4569;SDS011;2297;51.442;6.996;2024-01-15T14:23:55;8.05;;;3.80;;
4569;SDS011;2297;51.442;6.996;2024-01-15T14:26:22;6.63;;;4.35;;
4569;SDS011;2297;51.442;6.996;2024-01-15T14:28:48;9.80;;;3.67;;
4569;SDS011;2297;51.442;6.996;2024-01-15T14:31:15;8.60;;;3.70;;
4569;SDS011;2297;51.442;6.996;2024-01-15T14:33:43;8.20;;;3.72;;
4569;SDS011;2297;51.442;6.996;2024-01-15T14:36:09;7.28;;;3.70;;
4569;SDS011;2297;51.442;6.996;2024-01-15T14:38:36;14.15;;;4.32;;
4569;SDS011;2297;51.442;6.996;2024-01-15T14:41:03;6.05;;;3.85;;
4569;SDS011;2297;51.442;6.996;2024-01-15T14:43:30;6.57;;;3.90;;
4569;SDS011;2297;51.442;6.996;2024-01-15T14:45:58;7.45;;;3.38;;
4569;SDS011;2297;51.442;6.996;2024-01-15T14:48:24;6.30;;;3.17;;
4569;SDS011;2297;51.442;6.996;2024-01-15T14:50:52;6.63;;;3.50;;
4569;SDS011;2297;51.442;6.996;2024-01-15T14:53:19;8.77;;;2.80;;
4569;SDS011;2297;51.442;6.996;2024-01-15T14:55:46;5.63;;;3.03;;
4569;SDS011;2297;51.442;6.996;2024-01-15T14:58:13;6.85;;;3.90;;
4569;SDS011;2297;51.442;6.996;2024-01-15T15:00:38;5.45;;;3.03;;
4569;SDS011;2297;51.442;6.996;2024-01-15T15:03:05;5.00;;;2.83;;
4569;SDS011;2297;51.442;6.996;2024-01-15T15:05:31;5.25;;;3.33;;
4569;SDS011;2297;51.442;6.996;2024-01-15T15:07:59;6.70;;;3.75;;
4569;SDS011;2297;51.442;6.996;2024-01-15T15:10:28;7.13;;;3.45;;